sensor_id;sensor_type;location;lat;lon;timestamp;temperature;humidity
47540;DHT22;33280;52.152;21.052;2023-05-23T00:01:50;13.70;99.90
47540;DHT22;33280;52.152;21.052;2023-05-23T00:04:20;13.60;99.90
47540;DHT22;33280;52.152;21.052;2023-05-23T00:06:47;13.60;99.90
47540;DHT22;33280;52.152;21.052;2023-05-23T00:09:16;13.60;99.90
47540;DHT22;33280;52.152;21.052;2023-05-23T00:11:43;13.50;99.90
47540;DHT22;33280;52.152;21.052;2023-05-23T00:14:11;13.40;99.90
47540;DHT22;33280;52.152;21.052;2023-05-23T00:16:42;13.40;99.90
47540;DHT22;33280;52.152;21.052;2023-05-23T00:19:11;13.40;99.90
47540;DHT22;33280;52.152;21.052;2023-05-23T00:21:46;13.40;99.90
47540;DHT22;33280;52.152;21.052;2023-05-23T00:24:18;13.40;99.90
47540;DHT22;33280;52.152;21.052;2023-05-23T00:26:46;13.40;99.90
47540;DHT22;33280;52.152;21.052;2023-05-23T00:29:14;13.30;99.90
47540;DHT22;33280;52.152;21.052;2023-05-23T00:31:44;13.30;99.90
47540;DHT22;33280;52.152;21.052;2023-05-23T00:34:15;13.30;99.90
47540;DHT22;33280;52.152;21.052;2023-05-23T00:36:45;13.30;99.90
47540;DHT22;33280;52.152;21.052;2023-05-23T00:39:13;13.30;99.90
47540;DHT22;33280;52.152;21.052;2023-05-23T00:41:49;13.20;99.90
47540;DHT22;33280;52.152;21.052;2023-05-23T00:44:21;13.10;99.90
47540;DHT22;33280;52.152;21.052;2023-05-23T00:46:51;13.10;99.90
47540;DHT22;33280;52.152;21.052;2023-05-23T00:49:19;13.10;99.90
47540;DHT22;33280;52.152;21.052;2023-05-23T00:51:46;13.00;99.90
47540;DHT22;33280;52.152;21.052;2023-05-23T00:54:23;13.00;99.90
47540;DHT22;33280;52.152;21.052;2023-05-23T00:56:51;13.00;99.90
47540;DHT22;33280;52.152;21.052;2023-05-23T00:59:18;12.90;99.90
47540;DHT22;33280;52.152;21.052;2023-05-23T01:01:48;12.90;99.90
47540;DHT22;33280;52.152;21.052;2023-05-23T01:04:16;12.80;99.90
47540;DHT22;33280;52.152;21.052;2023-05-23T01:06:45;12.80;99.90
47540;DHT22;33280;52.152;21.052;2023-05-23T01:09:14;12.80;99.90
47540;DHT22;33280;52.152;21.052;2023-05-23T01:11:43;12.80;99.90
47540;DHT22;33280;52.152;21.052;2023-05-23T01:14:19;12.80;99.90
47540;DHT22;33280;52.152;21.052;2023-05-23T01:16:55;12.90;99.90
47540;DHT22;33280;52.152;21.052;2023-05-23T01:22:09;12.70;99.90
47540;DHT22;33280;52.152;21.052;2023-05-23T01:24:46;12.70;99.90
47540;DHT22;33280;52.152;21.052;2023-05-23T01:27:39;12.60;99.90
47540;DHT22;33280;52.152;21.052;2023-05-23T01:30:10;12.70;99.90
47540;DHT22;33280;52.152;21.052;2023-05-23T01:32:39;12.60;99.90
47540;DHT22;33280;52.152;21.052;2023-05-23T01:35:07;12.60;99.90
47540;DHT22;33280;52.152;21.052;2023-05-23T01:37:36;12.50;99.90
47540;DHT22;33280;52.152;21.052;2023-05-23T01:40:03;12.50;99.90
47540;DHT22;33280;52.152;21.052;2023-05-23T01:42:30;12.50;99.90
47540;DHT22;33280;52.152;21.052;2023-05-23T01:44:58;12.40;99.90
47540;DHT22;33280;52.152;21.052;2023-05-23T01:47:25;12.40;99.90
47540;DHT22;33280;52.152;21.052;2023-05-23T01:49:53;12.40;99.90
47540;DHT22;33280;52.152;21.052;2023-05-23T01:52:22;12.40;99.90
47540;DHT22;33280;52.152;21.052;2023-05-23T01:54:50;12.30;99.90
47540;DHT22;33280;52.152;21.052;2023-05-23T01:57:18;12.40;99.90
47540;DHT22;33280;52.152;21.052;2023-05-23T01:59:46;12.30;99.90
47540;DHT22;33280;52.152;21.052;2023-05-23T02:02:13;12.40;99.90
47540;DHT22;33280;52.152;21.052;2023-05-23T02:04:40;12.20;99.90
47540;DHT22;33280;52.152;21.052;2023-05-23T02:07:07;12.30;99.90
47540;DHT22;33280;52.152;21.052;2023-05-23T02:09:34;12.10;99.90
47540;DHT22;33280;52.152;21.052;2023-05-23T02:12:01;12.10;99.90
47540;DHT22;33280;52.152;21.052;2023-05-23T02:14:28;12.10;99.90
47540;DHT22;33280;52.152;21.052;2023-05-23T02:16:55;12.10;99.90
47540;DHT22;33280;52.152;21.052;2023-05-23T02:19:24;12.10;99.90
47540;DHT22;33280;52.152;21.052;2023-05-23T02:21:53;12.10;99.90
47540;DHT22;33280;52.152;21.052;2023-05-23T02:24:20;12.10;99.90
47540;DHT22;33280;52.152;21.052;2023-05-23T02:26:47;12.00;99.90
47540;DHT22;33280;52.152;21.052;2023-05-23T02:29:17;12.00;99.90
47540;DHT22;33280;52.152;21.052;2023-05-23T02:31:44;12.10;99.90
47540;DHT22;33280;52.152;21.052;2023-05-23T02:34:11;12.00;99.90
47540;DHT22;33280;52.152;21.052;2023-05-23T02:36:38;11.90;99.90
47540;DHT22;33280;52.152;21.052;2023-05-23T02:39:06;11.90;99.90
47540;DHT22;33280;52.152;21.052;2023-05-23T02:41:33;11.90;99.90
47540;DHT22;33280;52.152;21.052;2023-05-23T02:44:00;12.00;99.90
47540;DHT22;33280;52.152;21.052;2023-05-23T02:46:27;11.90;99.90
47540;DHT22;33280;52.152;21.052;2023-05-23T02:48:54;11.90;99.90
47540;DHT22;33280;52.152;21.052;2023-05-23T02:51:22;11.80;99.90
47540;DHT22;33280;52.152;21.052;2023-05-23T02:53:49;11.70;99.90
47540;DHT22;33280;52.152;21.052;2023-05-23T02:56:16;11.70;99.90
47540;DHT22;33280;52.152;21.052;2023-05-23T02:58:44;11.70;99.90
47540;DHT22;33280;52.152;21.052;2023-05-23T03:01:12;11.70;99.90
47540;DHT22;33280;52.152;21.052;2023-05-23T03:03:39;11.70;99.90
47540;DHT22;33280;52.152;21.052;2023-05-23T03:06:07;11.70;99.90
47540;DHT22;33280;52.152;21.052;2023-05-23T03:08:36;11.70;99.90
47540;DHT22;33280;52.152;21.052;2023-05-23T03:11:03;11.70;99.90
47540;DHT22;33280;52.152;21.052;2023-05-23T03:13:30;11.60;99.90
47540;DHT22;33280;52.152;21.052;2023-05-23T03:15:57;11.70;99.90
47540;DHT22;33280;52.152;21.052;2023-05-23T03:18:24;11.70;99.90
47540;DHT22;33280;52.152;21.052;2023-05-23T03:20:51;11.70;99.90
47540;DHT22;33280;52.152;21.052;2023-05-23T03:23:18;11.70;99.90
47540;DHT22;33280;52.152;21.052;2023-05-23T03:25:45;11.70;99.90
47540;DHT22;33280;52.152;21.052;2023-05-23T03:28:12;11.70;99.90
47540;DHT22;33280;52.152;21.052;2023-05-23T03:30:39;11.80;99.90
47540;DHT22;33280;52.152;21.052;2023-05-23T03:33:09;11.80;99.90
47540;DHT22;33280;52.152;21.052;2023-05-23T03:35:37;11.80;99.90
47540;DHT22;33280;52.152;21.052;2023-05-23T03:38:04;11.80;99.90
47540;DHT22;33280;52.152;21.052;2023-05-23T03:40:31;11.80;99.90
47540;DHT22;33280;52.152;21.052;2023-05-23T03:43:05;11.90;99.90
47540;DHT22;33280;52.152;21.052;2023-05-23T03:45:32;11.90;99.90
47540;DHT22;33280;52.152;21.052;2023-05-23T03:48:00;12.00;99.90
47540;DHT22;33280;52.152;21.052;2023-05-23T03:50:27;12.00;99.90
47540;DHT22;33280;52.152;21.052;2023-05-23T03:52:55;12.10;99.90
47540;DHT22;33280;52.152;21.052;2023-05-23T03:55:23;12.20;99.90
47540;DHT22;33280;52.152;21.052;2023-05-23T03:57:51;12.20;99.90
47540;DHT22;33280;52.152;21.052;2023-05-23T04:00:18;12.30;99.90
47540;DHT22;33280;52.152;21.052;2023-05-23T04:02:45;12.40;99.90
47540;DHT22;33280;52.152;21.052;2023-05-23T04:05:13;12.40;99.90
47540;DHT22;33280;52.152;21.052;2023-05-23T04:07:41;12.50;99.90
47540;DHT22;33280;52.152;21.052;2023-05-23T04:10:09;12.60;99.90
47540;DHT22;33280;52.152;21.052;2023-05-23T04:12:36;12.60;99.90
47540;DHT22;33280;52.152;21.052;2023-05-23T04:15:04;12.70;99.90
47540;DHT22;33280;52.152;21.052;2023-05-23T04:17:31;12.80;99.90
47540;DHT22;33280;52.152;21.052;2023-05-23T04:19:58;12.90;99.90
47540;DHT22;33280;52.152;21.052;2023-05-23T04:22:25;13.00;99.90
47540;DHT22;33280;52.152;21.052;2023-05-23T04:24:52;13.00;99.90
47540;DHT22;33280;52.152;21.052;2023-05-23T04:27:20;13.20;99.90
47540;DHT22;33280;52.152;21.052;2023-05-23T04:29:48;13.30;99.90
47540;DHT22;33280;52.152;21.052;2023-05-23T04:32:15;13.30;99.90
47540;DHT22;33280;52.152;21.052;2023-05-23T04:34:44;13.40;99.90
47540;DHT22;33280;52.152;21.052;2023-05-23T04:37:11;13.60;99.90
47540;DHT22;33280;52.152;21.052;2023-05-23T04:39:39;13.60;99.90
47540;DHT22;33280;52.152;21.052;2023-05-23T04:42:06;13.80;99.90
47540;DHT22;33280;52.152;21.052;2023-05-23T04:44:33;13.80;99.90
47540;DHT22;33280;52.152;21.052;2023-05-23T04:47:03;13.90;99.90
47540;DHT22;33280;52.152;21.052;2023-05-23T04:49:30;13.90;99.90
47540;DHT22;33280;52.152;21.052;2023-05-23T04:52:00;14.00;99.90
47540;DHT22;33280;52.152;21.052;2023-05-23T04:54:26;14.10;99.90
47540;DHT22;33280;52.152;21.052;2023-05-23T04:56:54;14.20;99.90
47540;DHT22;33280;52.152;21.052;2023-05-23T04:59:20;14.30;99.90
47540;DHT22;33280;52.152;21.052;2023-05-23T05:01:47;14.40;99.90
47540;DHT22;33280;52.152;21.052;2023-05-23T05:04:14;14.50;99.90
47540;DHT22;33280;52.152;21.052;2023-05-23T05:06:42;14.60;99.90
47540;DHT22;33280;52.152;21.052;2023-05-23T05:09:09;14.70;99.90
47540;DHT22;33280;52.152;21.052;2023-05-23T05:11:35;14.80;99.90
47540;DHT22;33280;52.152;21.052;2023-05-23T05:14:03;14.90;99.90
47540;DHT22;33280;52.152;21.052;2023-05-23T05:16:30;15.00;99.90
47540;DHT22;33280;52.152;21.052;2023-05-23T05:18:57;15.00;99.90
47540;DHT22;33280;52.152;21.052;2023-05-23T05:21:24;15.20;99.90
47540;DHT22;33280;52.152;21.052;2023-05-23T05:23:51;15.20;99.90
47540;DHT22;33280;52.152;21.052;2023-05-23T05:26:18;15.30;99.90
47540;DHT22;33280;52.152;21.052;2023-05-23T05:28:45;15.40;99.90
47540;DHT22;33280;52.152;21.052;2023-05-23T05:31:12;15.50;99.90
47540;DHT22;33280;52.152;21.052;2023-05-23T05:33:41;15.60;99.90
47540;DHT22;33280;52.152;21.052;2023-05-23T05:36:11;15.70;99.90
47540;DHT22;33280;52.152;21.052;2023-05-23T05:38:38;15.80;99.90
47540;DHT22;33280;52.152;21.052;2023-05-23T05:41:05;16.00;99.90
47540;DHT22;33280;52.152;21.052;2023-05-23T05:43:35;16.00;99.90
47540;DHT22;33280;52.152;21.052;2023-05-23T05:46:02;16.20;99.90
47540;DHT22;33280;52.152;21.052;2023-05-23T05:48:29;16.30;99.90
47540;DHT22;33280;52.152;21.052;2023-05-23T05:50:56;16.40;99.90
47540;DHT22;33280;52.152;21.052;2023-05-23T05:53:23;16.60;99.90
47540;DHT22;33280;52.152;21.052;2023-05-23T05:55:50;16.50;99.90
47540;DHT22;33280;52.152;21.052;2023-05-23T05:58:17;16.70;99.90
47540;DHT22;33280;52.152;21.052;2023-05-23T06:00:44;16.70;99.90
47540;DHT22;33280;52.152;21.052;2023-05-23T06:03:11;16.80;99.90
47540;DHT22;33280;52.152;21.052;2023-05-23T06:05:38;16.90;99.90
47540;DHT22;33280;52.152;21.052;2023-05-23T06:08:06;17.00;99.90
47540;DHT22;33280;52.152;21.052;2023-05-23T06:10:33;17.10;99.90
47540;DHT22;33280;52.152;21.052;2023-05-23T06:13:00;17.10;99.90
47540;DHT22;33280;52.152;21.052;2023-05-23T06:15:28;17.20;99.90
47540;DHT22;33280;52.152;21.052;2023-05-23T06:17:55;17.30;99.90
47540;DHT22;33280;52.152;21.052;2023-05-23T06:20:22;17.40;99.90
47540;DHT22;33280;52.152;21.052;2023-05-23T06:22:49;17.50;99.90
47540;DHT22;33280;52.152;21.052;2023-05-23T06:25:16;17.70;99.90
47540;DHT22;33280;52.152;21.052;2023-05-23T06:27:44;17.80;99.90
47540;DHT22;33280;52.152;21.052;2023-05-23T06:30:12;17.90;99.90
47540;DHT22;33280;52.152;21.052;2023-05-23T06:32:40;18.00;99.90
47540;DHT22;33280;52.152;21.052;2023-05-23T06:35:08;18.10;99.90
47540;DHT22;33280;52.152;21.052;2023-05-23T06:37:36;18.30;99.90
47540;DHT22;33280;52.152;21.052;2023-05-23T06:40:03;18.40;99.90
47540;DHT22;33280;52.152;21.052;2023-05-23T06:42:31;18.50;99.90
47540;DHT22;33280;52.152;21.052;2023-05-23T06:44:58;18.60;99.90
47540;DHT22;33280;52.152;21.052;2023-05-23T06:47:25;18.60;99.90
47540;DHT22;33280;52.152;21.052;2023-05-23T06:49:52;18.70;99.90
47540;DHT22;33280;52.152;21.052;2023-05-23T06:52:19;18.70;99.90
47540;DHT22;33280;52.152;21.052;2023-05-23T06:54:45;18.90;99.90
47540;DHT22;33280;52.152;21.052;2023-05-23T06:57:12;18.90;99.90
47540;DHT22;33280;52.152;21.052;2023-05-23T06:59:39;18.90;99.90
47540;DHT22;33280;52.152;21.052;2023-05-23T07:02:07;19.10;99.90
47540;DHT22;33280;52.152;21.052;2023-05-23T07:04:34;19.20;99.90
47540;DHT22;33280;52.152;21.052;2023-05-23T07:07:01;19.20;99.90
47540;DHT22;33280;52.152;21.052;2023-05-23T07:09:28;19.30;99.90
47540;DHT22;33280;52.152;21.052;2023-05-23T07:11:58;19.50;99.90
47540;DHT22;33280;52.152;21.052;2023-05-23T07:14:25;19.60;99.90
47540;DHT22;33280;52.152;21.052;2023-05-23T07:16:52;19.70;99.90
47540;DHT22;33280;52.152;21.052;2023-05-23T07:19:19;19.80;99.90
47540;DHT22;33280;52.152;21.052;2023-05-23T07:21:46;19.80;99.90
47540;DHT22;33280;52.152;21.052;2023-05-23T07:24:13;19.90;99.90
47540;DHT22;33280;52.152;21.052;2023-05-23T07:26:40;20.00;99.90
47540;DHT22;33280;52.152;21.052;2023-05-23T07:29:07;20.00;99.90
47540;DHT22;33280;52.152;21.052;2023-05-23T07:31:34;20.20;99.90
47540;DHT22;33280;52.152;21.052;2023-05-23T07:34:01;20.20;99.90
47540;DHT22;33280;52.152;21.052;2023-05-23T07:36:28;20.30;99.90
47540;DHT22;33280;52.152;21.052;2023-05-23T07:38:55;20.40;99.90
47540;DHT22;33280;52.152;21.052;2023-05-23T07:41:22;20.50;99.90
47540;DHT22;33280;52.152;21.052;2023-05-23T07:43:49;20.60;99.90
47540;DHT22;33280;52.152;21.052;2023-05-23T07:46:16;20.70;99.90
47540;DHT22;33280;52.152;21.052;2023-05-23T07:48:44;20.60;99.90
47540;DHT22;33280;52.152;21.052;2023-05-23T07:51:11;20.70;99.90
47540;DHT22;33280;52.152;21.052;2023-05-23T07:53:38;20.70;99.90
47540;DHT22;33280;52.152;21.052;2023-05-23T07:56:06;20.80;99.90
47540;DHT22;33280;52.152;21.052;2023-05-23T07:58:33;20.90;99.90
47540;DHT22;33280;52.152;21.052;2023-05-23T08:01:00;21.00;99.90
47540;DHT22;33280;52.152;21.052;2023-05-23T08:03:26;21.10;99.90
47540;DHT22;33280;52.152;21.052;2023-05-23T08:05:53;21.30;99.90
47540;DHT22;33280;52.152;21.052;2023-05-23T08:08:20;21.40;99.90
47540;DHT22;33280;52.152;21.052;2023-05-23T08:10:47;21.50;99.90
47540;DHT22;33280;52.152;21.052;2023-05-23T08:13:14;21.60;99.90
47540;DHT22;33280;52.152;21.052;2023-05-23T08:15:42;21.70;99.20
47540;DHT22;33280;52.152;21.052;2023-05-23T08:18:10;22.20;97.40
47540;DHT22;33280;52.152;21.052;2023-05-23T08:20:37;22.90;94.70
47540;DHT22;33280;52.152;21.052;2023-05-23T08:23:04;23.50;93.70
47540;DHT22;33280;52.152;21.052;2023-05-23T08:25:31;24.30;93.00
47540;DHT22;33280;52.152;21.052;2023-05-23T08:27:59;24.90;86.50
47540;DHT22;33280;52.152;21.052;2023-05-23T08:30:27;25.50;81.90
47540;DHT22;33280;52.152;21.052;2023-05-23T08:32:55;26.30;78.10
47540;DHT22;33280;52.152;21.052;2023-05-23T08:35:24;26.40;74.80
47540;DHT22;33280;52.152;21.052;2023-05-23T08:37:51;26.70;74.50
47540;DHT22;33280;52.152;21.052;2023-05-23T08:40:22;27.10;70.10
47540;DHT22;33280;52.152;21.052;2023-05-23T08:42:49;27.10;66.90
47540;DHT22;33280;52.152;21.052;2023-05-23T08:45:17;26.60;65.70
47540;DHT22;33280;52.152;21.052;2023-05-23T08:47:45;26.50;65.70
47540;DHT22;33280;52.152;21.052;2023-05-23T08:50:16;26.90;65.10
47540;DHT22;33280;52.152;21.052;2023-05-23T08:52:58;27.30;63.90
47540;DHT22;33280;52.152;21.052;2023-05-23T08:55:27;27.90;64.20
47540;DHT22;33280;52.152;21.052;2023-05-23T08:57:55;28.10;60.10
47540;DHT22;33280;52.152;21.052;2023-05-23T09:00:26;28.20;59.40
47540;DHT22;33280;52.152;21.052;2023-05-23T09:02:53;28.30;58.10
47540;DHT22;33280;52.152;21.052;2023-05-23T09:05:21;28.30;58.00
47540;DHT22;33280;52.152;21.052;2023-05-23T09:07:48;28.50;58.90
47540;DHT22;33280;52.152;21.052;2023-05-23T09:10:18;28.80;55.90
47540;DHT22;33280;52.152;21.052;2023-05-23T09:12:48;28.30;56.40
47540;DHT22;33280;52.152;21.052;2023-05-23T09:15:18;28.20;56.30
47540;DHT22;33280;52.152;21.052;2023-05-23T09:17:45;28.30;56.20
47540;DHT22;33280;52.152;21.052;2023-05-23T09:20:14;28.70;55.30
47540;DHT22;33280;52.152;21.052;2023-05-23T09:22:48;29.00;56.30
47540;DHT22;33280;52.152;21.052;2023-05-23T09:25:15;28.90;54.90
47540;DHT22;33280;52.152;21.052;2023-05-23T09:27:42;28.50;52.70
47540;DHT22;33280;52.152;21.052;2023-05-23T09:30:14;28.30;53.30
47540;DHT22;33280;52.152;21.052;2023-05-23T09:32:41;28.40;53.60
47540;DHT22;33280;52.152;21.052;2023-05-23T09:35:08;28.20;53.70
47540;DHT22;33280;52.152;21.052;2023-05-23T09:37:44;28.50;55.00
47540;DHT22;33280;52.152;21.052;2023-05-23T09:40:14;28.30;53.90
47540;DHT22;33280;52.152;21.052;2023-05-23T09:42:46;28.40;54.40
47540;DHT22;33280;52.152;21.052;2023-05-23T09:45:15;28.10;52.80
47540;DHT22;33280;52.152;21.052;2023-05-23T09:47:50;28.40;54.30
47540;DHT22;33280;52.152;21.052;2023-05-23T09:50:18;28.40;52.60
47540;DHT22;33280;52.152;21.052;2023-05-23T09:52:46;28.50;53.00
47540;DHT22;33280;52.152;21.052;2023-05-23T09:55:13;28.60;54.30
47540;DHT22;33280;52.152;21.052;2023-05-23T09:57:42;28.80;52.60
47540;DHT22;33280;52.152;21.052;2023-05-23T10:00:11;29.00;54.10
47540;DHT22;33280;52.152;21.052;2023-05-23T10:05:21;29.80;52.10
47540;DHT22;33280;52.152;21.052;2023-05-23T10:07:50;29.90;50.60
47540;DHT22;33280;52.152;21.052;2023-05-23T10:10:20;30.10;50.30
47540;DHT22;33280;52.152;21.052;2023-05-23T10:12:50;30.30;50.00
47540;DHT22;33280;52.152;21.052;2023-05-23T10:15:21;30.00;49.30
47540;DHT22;33280;52.152;21.052;2023-05-23T10:20:32;28.50;51.40
47540;DHT22;33280;52.152;21.052;2023-05-23T10:23:02;28.10;52.50
47540;DHT22;33280;52.152;21.052;2023-05-23T10:25:31;27.90;53.30
47540;DHT22;33280;52.152;21.052;2023-05-23T10:27:58;28.00;53.50
47540;DHT22;33280;52.152;21.052;2023-05-23T10:30:29;28.20;52.60
47540;DHT22;33280;52.152;21.052;2023-05-23T10:32:58;28.80;53.00
47540;DHT22;33280;52.152;21.052;2023-05-23T10:46:11;28.40;52.80
47540;DHT22;33280;52.152;21.052;2023-05-23T10:48:42;28.70;51.50
47540;DHT22;33280;52.152;21.052;2023-05-23T10:51:14;29.20;52.00
47540;DHT22;33280;52.152;21.052;2023-05-23T10:53:42;29.10;51.40
47540;DHT22;33280;52.152;21.052;2023-05-23T10:56:18;29.40;50.90
47540;DHT22;33280;52.152;21.052;2023-05-23T10:58:56;29.20;51.60
47540;DHT22;33280;52.152;21.052;2023-05-23T11:01:26;29.30;51.20
47540;DHT22;33280;52.152;21.052;2023-05-23T11:03:53;29.70;51.50
47540;DHT22;33280;52.152;21.052;2023-05-23T11:06:45;30.10;50.20
47540;DHT22;33280;52.152;21.052;2023-05-23T11:09:17;30.10;48.90
47540;DHT22;33280;52.152;21.052;2023-05-23T11:19:38;30.30;49.80
47540;DHT22;33280;52.152;21.052;2023-05-23T11:22:11;30.30;50.00
47540;DHT22;33280;52.152;21.052;2023-05-23T11:24:51;30.50;50.00
47540;DHT22;33280;52.152;21.052;2023-05-23T11:29:58;30.20;48.20
47540;DHT22;33280;52.152;21.052;2023-05-23T11:32:28;30.30;47.90
47540;DHT22;33280;52.152;21.052;2023-05-23T11:35:03;30.30;49.90
47540;DHT22;33280;52.152;21.052;2023-05-23T11:37:31;30.20;49.20
47540;DHT22;33280;52.152;21.052;2023-05-23T11:39:59;30.20;48.20
47540;DHT22;33280;52.152;21.052;2023-05-23T11:42:46;30.00;49.20
47540;DHT22;33280;52.152;21.052;2023-05-23T11:45:13;30.40;49.80
47540;DHT22;33280;52.152;21.052;2023-05-23T11:47:40;30.60;47.70
47540;DHT22;33280;52.152;21.052;2023-05-23T11:50:08;31.20;47.60
47540;DHT22;33280;52.152;21.052;2023-05-23T11:52:35;31.20;46.90
47540;DHT22;33280;52.152;21.052;2023-05-23T11:55:02;31.30;46.20
47540;DHT22;33280;52.152;21.052;2023-05-23T11:57:29;31.50;45.30
47540;DHT22;33280;52.152;21.052;2023-05-23T11:59:57;31.60;45.80
47540;DHT22;33280;52.152;21.052;2023-05-23T12:02:27;31.70;46.20
47540;DHT22;33280;52.152;21.052;2023-05-23T12:04:54;32.00;46.30
47540;DHT22;33280;52.152;21.052;2023-05-23T12:07:21;32.00;45.20
47540;DHT22;33280;52.152;21.052;2023-05-23T12:09:48;32.20;45.90
47540;DHT22;33280;52.152;21.052;2023-05-23T12:12:15;32.30;45.30
47540;DHT22;33280;52.152;21.052;2023-05-23T12:14:43;32.00;45.30
47540;DHT22;33280;52.152;21.052;2023-05-23T12:17:13;32.00;46.50
47540;DHT22;33280;52.152;21.052;2023-05-23T12:19:44;32.40;46.60
47540;DHT22;33280;52.152;21.052;2023-05-23T12:22:12;32.70;45.10
47540;DHT22;33280;52.152;21.052;2023-05-23T12:24:45;32.60;45.00
47540;DHT22;33280;52.152;21.052;2023-05-23T12:27:15;32.40;44.80
47540;DHT22;33280;52.152;21.052;2023-05-23T12:29:49;31.80;44.60
47540;DHT22;33280;52.152;21.052;2023-05-23T12:32:19;31.30;45.70
47540;DHT22;33280;52.152;21.052;2023-05-23T12:34:50;31.50;47.30
47540;DHT22;33280;52.152;21.052;2023-05-23T12:37:18;31.30;45.90
47540;DHT22;33280;52.152;21.052;2023-05-23T12:39:46;30.70;45.90
47540;DHT22;33280;52.152;21.052;2023-05-23T12:42:13;30.50;46.80
47540;DHT22;33280;52.152;21.052;2023-05-23T12:44:40;30.60;47.10
47540;DHT22;33280;52.152;21.052;2023-05-23T12:47:09;29.70;47.30
47540;DHT22;33280;52.152;21.052;2023-05-23T12:49:37;29.50;47.80
47540;DHT22;33280;52.152;21.052;2023-05-23T12:52:04;30.20;48.80
47540;DHT22;33280;52.152;21.052;2023-05-23T12:54:33;30.80;48.70
47540;DHT22;33280;52.152;21.052;2023-05-23T12:57:00;31.10;48.30
47540;DHT22;33280;52.152;21.052;2023-05-23T12:59:28;30.90;47.60
47540;DHT22;33280;52.152;21.052;2023-05-23T13:01:54;30.70;46.60
47540;DHT22;33280;52.152;21.052;2023-05-23T13:04:21;30.30;47.90
47540;DHT22;33280;52.152;21.052;2023-05-23T13:06:49;30.00;48.80
47540;DHT22;33280;52.152;21.052;2023-05-23T13:09:16;29.60;49.70
47540;DHT22;33280;52.152;21.052;2023-05-23T13:11:43;29.00;50.20
47540;DHT22;33280;52.152;21.052;2023-05-23T13:14:10;28.70;50.40
47540;DHT22;33280;52.152;21.052;2023-05-23T13:16:37;28.50;50.80
47540;DHT22;33280;52.152;21.052;2023-05-23T13:19:05;28.30;51.40
47540;DHT22;33280;52.152;21.052;2023-05-23T13:21:32;28.10;50.40
47540;DHT22;33280;52.152;21.052;2023-05-23T13:23:59;28.60;50.80
47540;DHT22;33280;52.152;21.052;2023-05-23T13:26:26;29.20;50.40
47540;DHT22;33280;52.152;21.052;2023-05-23T13:28:53;29.80;50.00
47540;DHT22;33280;52.152;21.052;2023-05-23T13:31:20;30.30;49.20
47540;DHT22;33280;52.152;21.052;2023-05-23T13:33:47;30.60;47.40
47540;DHT22;33280;52.152;21.052;2023-05-23T13:36:14;30.70;47.10
47540;DHT22;33280;52.152;21.052;2023-05-23T13:38:41;31.10;46.70
47540;DHT22;33280;52.152;21.052;2023-05-23T13:41:08;30.90;46.40
47540;DHT22;33280;52.152;21.052;2023-05-23T13:43:36;31.40;46.30
47540;DHT22;33280;52.152;21.052;2023-05-23T13:46:03;31.60;45.60
47540;DHT22;33280;52.152;21.052;2023-05-23T13:48:31;32.10;45.60
47540;DHT22;33280;52.152;21.052;2023-05-23T13:50:58;32.10;44.90
47540;DHT22;33280;52.152;21.052;2023-05-23T13:53:27;32.60;45.60
47540;DHT22;33280;52.152;21.052;2023-05-23T13:55:54;32.40;44.50
47540;DHT22;33280;52.152;21.052;2023-05-23T13:58:22;32.80;44.40
47540;DHT22;33280;52.152;21.052;2023-05-23T14:00:49;32.90;44.50
47540;DHT22;33280;52.152;21.052;2023-05-23T14:03:16;32.50;44.30
47540;DHT22;33280;52.152;21.052;2023-05-23T14:05:45;32.70;44.50
47540;DHT22;33280;52.152;21.052;2023-05-23T14:08:12;32.80;43.50
47540;DHT22;33280;52.152;21.052;2023-05-23T14:10:39;32.80;43.70
47540;DHT22;33280;52.152;21.052;2023-05-23T14:13:09;33.10;44.40
47540;DHT22;33280;52.152;21.052;2023-05-23T14:15:36;33.10;43.60
47540;DHT22;33280;52.152;21.052;2023-05-23T14:18:04;33.40;43.60
47540;DHT22;33280;52.152;21.052;2023-05-23T14:20:31;33.70;42.70
47540;DHT22;33280;52.152;21.052;2023-05-23T14:22:59;33.80;42.40
47540;DHT22;33280;52.152;21.052;2023-05-23T14:25:26;33.80;43.10
47540;DHT22;33280;52.152;21.052;2023-05-23T14:27:54;33.90;44.30
47540;DHT22;33280;52.152;21.052;2023-05-23T14:30:21;33.80;43.10
47540;DHT22;33280;52.152;21.052;2023-05-23T14:32:48;34.00;42.50
47540;DHT22;33280;52.152;21.052;2023-05-23T14:35:15;33.60;42.00
47540;DHT22;33280;52.152;21.052;2023-05-23T14:37:44;33.70;42.20
47540;DHT22;33280;52.152;21.052;2023-05-23T14:40:12;33.60;41.50
47540;DHT22;33280;52.152;21.052;2023-05-23T14:42:39;33.40;41.90
47540;DHT22;33280;52.152;21.052;2023-05-23T14:45:07;33.30;42.50
47540;DHT22;33280;52.152;21.052;2023-05-23T14:47:37;33.50;41.90
47540;DHT22;33280;52.152;21.052;2023-05-23T14:50:05;33.70;42.20
47540;DHT22;33280;52.152;21.052;2023-05-23T14:52:35;34.00;41.80
47540;DHT22;33280;52.152;21.052;2023-05-23T14:55:02;33.70;41.10
47540;DHT22;33280;52.152;21.052;2023-05-23T14:57:29;33.30;41.20
47540;DHT22;33280;52.152;21.052;2023-05-23T14:59:56;33.90;41.90
47540;DHT22;33280;52.152;21.052;2023-05-23T15:02:23;34.30;42.00
47540;DHT22;33280;52.152;21.052;2023-05-23T15:04:50;34.70;41.20
47540;DHT22;33280;52.152;21.052;2023-05-23T15:07:17;34.90;41.90
47540;DHT22;33280;52.152;21.052;2023-05-23T15:09:44;35.30;42.00
47540;DHT22;33280;52.152;21.052;2023-05-23T15:12:12;35.70;40.90
47540;DHT22;33280;52.152;21.052;2023-05-23T15:14:41;36.10;40.30
47540;DHT22;33280;52.152;21.052;2023-05-23T15:17:09;35.60;38.60
47540;DHT22;33280;52.152;21.052;2023-05-23T15:19:39;35.40;39.60
47540;DHT22;33280;52.152;21.052;2023-05-23T15:22:09;35.20;39.50
47540;DHT22;33280;52.152;21.052;2023-05-23T15:24:48;34.80;39.20
47540;DHT22;33280;52.152;21.052;2023-05-23T15:27:14;34.90;39.80
47540;DHT22;33280;52.152;21.052;2023-05-23T15:29:49;35.50;39.90
47540;DHT22;33280;52.152;21.052;2023-05-23T15:32:18;35.10;38.90
47540;DHT22;33280;52.152;21.052;2023-05-23T15:34:45;35.30;38.60
47540;DHT22;33280;52.152;21.052;2023-05-23T15:37:13;34.60;39.50
47540;DHT22;33280;52.152;21.052;2023-05-23T15:39:41;34.10;40.70
47540;DHT22;33280;52.152;21.052;2023-05-23T15:42:14;33.40;43.40
47540;DHT22;33280;52.152;21.052;2023-05-23T15:44:50;33.30;42.30
47540;DHT22;33280;52.152;21.052;2023-05-23T15:47:22;33.30;41.30
47540;DHT22;33280;52.152;21.052;2023-05-23T15:49:52;33.10;41.00
47540;DHT22;33280;52.152;21.052;2023-05-23T15:52:22;33.00;41.30